createdAt,value
2019-03-12T00:00:50.474Z,978.18
2019-03-12T00:01:50.464Z,978.16
2019-03-12T00:02:50.496Z,978.17
2019-03-12T00:03:50.448Z,978.15
2019-03-12T00:04:50.449Z,978.16
2019-03-12T00:05:50.439Z,978.22
2019-03-12T00:06:50.443Z,978.26
2019-03-12T00:07:50.455Z,978.23
2019-03-12T00:08:50.422Z,978.26
2019-03-12T00:09:53.620Z,978.23
2019-03-12T00:10:50.408Z,978.29
2019-03-12T00:11:50.402Z,978.38
2019-03-12T00:12:50.432Z,978.37
2019-03-12T00:13:50.392Z,978.35
2019-03-12T00:14:50.388Z,978.31
2019-03-12T00:15:50.376Z,978.35
2019-03-12T00:16:50.372Z,978.37
2019-03-12T00:17:50.401Z,978.39
2019-03-12T00:18:50.361Z,978.34
2019-03-12T00:19:50.357Z,978.37
2019-03-12T00:20:50.352Z,978.37
2019-03-12T00:21:50.344Z,978.41
2019-03-12T00:22:50.375Z,978.41
2019-03-12T00:23:50.335Z,978.43
2019-03-12T00:24:50.324Z,978.45
2019-03-12T00:25:50.320Z,978.47
2019-03-12T00:26:50.315Z,978.51
2019-03-12T00:27:50.340Z,978.53
2019-03-12T00:28:50.303Z,978.52
2019-03-12T00:29:50.294Z,978.52
2019-03-12T00:30:50.291Z,978.56
2019-03-12T00:31:50.287Z,978.54
2019-03-12T00:32:50.317Z,978.58
2019-03-12T00:33:50.273Z,978.59
2019-03-12T00:34:50.274Z,978.60
2019-03-12T00:35:50.266Z,978.59
2019-03-12T00:36:50.256Z,978.65
2019-03-12T00:37:50.283Z,978.68
2019-03-12T00:38:50.281Z,978.66
2019-03-12T00:39:50.242Z,978.70
2019-03-12T00:40:50.229Z,978.70
2019-03-12T00:41:50.227Z,978.71
2019-03-12T00:42:50.223Z,978.71
2019-03-12T00:43:50.257Z,978.71
2019-03-12T00:44:50.206Z,978.77
2019-03-12T00:45:50.202Z,978.83
2019-03-12T00:46:50.201Z,978.86
2019-03-12T00:47:50.191Z,978.83
2019-03-12T00:48:50.221Z,978.84
2019-03-12T00:49:50.178Z,978.89
2019-03-12T00:50:50.179Z,978.89
2019-03-12T00:51:50.165Z,978.89
2019-03-12T00:52:50.162Z,978.95
2019-03-12T00:53:50.191Z,978.96
2019-03-12T00:54:50.157Z,978.96
2019-03-12T00:55:50.146Z,979.00
2019-03-12T00:56:50.135Z,979.00
2019-03-12T00:57:50.133Z,979.06
2019-03-12T00:58:50.163Z,979.06
2019-03-12T00:59:50.122Z,979.07
2019-03-12T01:00:50.114Z,979.09
2019-03-12T01:01:50.108Z,979.10
2019-03-12T01:02:50.106Z,979.12
2019-03-12T01:03:50.146Z,979.04
2019-03-12T01:04:50.094Z,979.06
2019-03-12T01:05:50.087Z,979.08
2019-03-12T01:06:50.082Z,979.09
2019-03-12T01:07:50.074Z,979.06
2019-03-12T01:08:50.069Z,979.07
2019-03-12T01:09:50.096Z,979.06
2019-03-12T01:10:50.054Z,979.07
2019-03-12T01:11:50.053Z,979.02
2019-03-12T01:12:50.044Z,979.08
2019-03-12T01:13:50.072Z,979.07
2019-03-12T01:14:50.032Z,979.04
2019-03-12T01:15:50.028Z,979.04
2019-03-12T01:16:50.020Z,978.99
2019-03-12T01:17:50.101Z,979.03
2019-03-12T01:18:50.051Z,979.03
2019-03-12T01:19:50.010Z,979.04
2019-03-12T01:20:49.993Z,979.07
2019-03-12T01:21:49.992Z,979.12
2019-03-12T01:22:49.983Z,979.08
2019-03-12T01:23:50.011Z,979.10
2019-03-12T01:24:50.012Z,979.11
2019-03-12T01:25:49.968Z,979.08
2019-03-12T01:26:49.955Z,979.09
2019-03-12T01:27:49.955Z,979.11
2019-03-12T01:28:49.948Z,979.04
2019-03-12T01:29:49.984Z,979.06
2019-03-12T01:30:49.943Z,979.05
2019-03-12T01:31:49.933Z,979.04
2019-03-12T01:32:49.924Z,979.04
2019-03-12T01:33:49.925Z,979.08
2019-03-12T01:34:49.951Z,979.10
2019-03-12T01:35:49.910Z,979.12
2019-03-12T01:36:49.905Z,979.15
2019-03-12T01:37:49.895Z,979.16
2019-03-12T01:38:49.897Z,979.16
2019-03-12T01:39:49.919Z,979.14
2019-03-12T01:40:49.879Z,979.21
2019-03-12T01:41:49.870Z,979.23
2019-03-12T01:42:52.332Z,979.21
2019-03-12T01:43:49.859Z,979.23
2019-03-12T01:44:49.887Z,979.23
2019-03-12T01:45:49.851Z,979.26
2019-03-12T01:46:49.854Z,979.22
2019-03-12T01:47:49.832Z,979.22
2019-03-12T01:48:49.830Z,979.22
2019-03-12T01:49:49.859Z,979.19
2019-03-12T01:50:49.822Z,979.19
2019-03-12T01:51:49.812Z,979.17
2019-03-12T01:52:49.814Z,979.19
2019-03-12T01:53:49.800Z,979.18
2019-03-12T01:54:49.826Z,979.19
2019-03-12T01:55:49.786Z,979.21
2019-03-12T01:56:49.784Z,979.25
2019-03-12T01:57:49.777Z,979.23
2019-03-12T01:58:49.772Z,979.25
2019-03-12T01:59:49.797Z,979.28
2019-03-12T02:00:49.758Z,979.26
2019-03-12T02:01:49.756Z,979.25
2019-03-12T02:02:49.747Z,979.24
2019-03-12T02:03:49.742Z,979.19
2019-03-12T02:04:49.815Z,979.23
2019-03-12T02:05:49.732Z,979.23
2019-03-12T02:06:49.725Z,979.24
2019-03-12T02:07:49.721Z,979.27
2019-03-12T02:08:49.713Z,979.25
2019-03-12T02:09:49.734Z,979.26
2019-03-12T02:10:49.697Z,979.27
2019-03-12T02:11:49.694Z,979.30
2019-03-12T02:12:49.685Z,979.30
2019-03-12T02:13:49.683Z,979.33
2019-03-12T02:14:49.710Z,979.32
2019-03-12T02:15:49.668Z,979.39
2019-03-12T02:16:49.658Z,979.39
2019-03-12T02:17:49.656Z,979.40
2019-03-12T02:18:49.649Z,979.37
2019-03-12T02:19:49.676Z,979.38
2019-03-12T02:20:49.635Z,979.38
2019-03-12T02:21:49.640Z,979.42
2019-03-12T02:22:49.625Z,979.34
2019-03-12T02:23:49.620Z,979.43
2019-03-12T02:24:52.945Z,979.43
2019-03-12T02:25:49.609Z,979.46
2019-03-12T02:26:49.600Z,979.44
2019-03-12T02:27:49.596Z,979.49
2019-03-12T02:28:49.589Z,979.46
2019-03-12T02:29:49.615Z,979.45
2019-03-12T02:30:49.615Z,979.48
2019-03-12T02:31:49.577Z,979.46
2019-03-12T02:32:49.568Z,979.53
2019-03-12T02:33:49.563Z,979.51
2019-03-12T02:34:49.557Z,979.54
2019-03-12T02:35:49.588Z,979.53
2019-03-12T02:36:49.545Z,979.57
2019-03-12T02:37:49.539Z,979.60
2019-03-12T02:38:49.598Z,979.58
2019-03-12T02:39:49.525Z,979.59
2019-03-12T02:40:49.553Z,979.55
2019-03-12T02:41:49.514Z,979.56
2019-03-12T02:42:49.505Z,979.54
2019-03-12T02:43:49.507Z,979.56
2019-03-12T02:44:49.620Z,979.53
2019-03-12T02:45:49.521Z,979.54
2019-03-12T02:46:49.484Z,979.58
2019-03-12T02:47:49.482Z,979.57
2019-03-12T02:48:49.528Z,979.51
2019-03-12T02:49:49.468Z,979.52
2019-03-12T02:50:49.491Z,979.50
2019-03-12T02:51:49.451Z,979.47
2019-03-12T02:52:49.454Z,979.49
2019-03-12T02:53:49.439Z,979.52
2019-03-12T02:54:49.434Z,979.54
2019-03-12T02:55:49.459Z,979.50
2019-03-12T02:56:49.423Z,979.54
2019-03-12T02:57:49.415Z,979.56
2019-03-12T02:58:49.411Z,979.54
2019-03-12T02:59:49.402Z,979.57
2019-03-12T03:00:49.459Z,979.60
2019-03-12T03:01:49.395Z,979.59
2019-03-12T03:02:49.381Z,979.65
2019-03-12T03:03:49.382Z,979.63
2019-03-12T03:04:53.716Z,979.63
2019-03-12T03:05:49.403Z,979.63
2019-03-12T03:06:49.360Z,979.66
2019-03-12T03:07:49.360Z,979.65
2019-03-12T03:08:49.347Z,979.70
2019-03-12T03:09:49.341Z,979.71
2019-03-12T03:10:49.385Z,979.71
2019-03-12T03:11:51.236Z,979.77
2019-03-12T03:12:49.321Z,979.72
2019-03-12T03:13:49.316Z,979.74
2019-03-12T03:14:49.310Z,979.74
2019-03-12T03:15:49.342Z,979.76
2019-03-12T03:16:49.297Z,979.81
2019-03-12T03:17:49.292Z,979.75
2019-03-12T03:18:49.282Z,979.85
2019-03-12T03:19:49.279Z,979.86
2019-03-12T03:20:49.311Z,979.91
2019-03-12T03:21:49.266Z,979.96
2019-03-12T03:22:49.265Z,980.00
2019-03-12T03:23:49.269Z,980.02
2019-03-12T03:24:49.249Z,980.05
2019-03-12T03:25:49.278Z,980.10
2019-03-12T03:26:49.236Z,980.08
2019-03-12T03:27:49.241Z,980.12
2019-03-12T03:28:49.225Z,980.08
2019-03-12T03:29:49.220Z,980.07
2019-03-12T03:30:49.248Z,980.11
2019-03-12T03:31:49.211Z,980.07
2019-03-12T03:32:49.196Z,980.11
2019-03-12T03:33:49.192Z,980.13
2019-03-12T03:34:49.191Z,980.12
2019-03-12T03:35:49.176Z,980.09
2019-03-12T03:36:49.208Z,980.10
2019-03-12T03:37:49.164Z,980.11
2019-03-12T03:38:49.170Z,980.12
2019-03-12T03:39:49.157Z,980.14
2019-03-12T03:40:49.148Z,980.10
2019-03-12T03:41:49.181Z,980.14
2019-03-12T03:42:49.142Z,980.13
2019-03-12T03:43:49.129Z,980.15
2019-03-12T03:44:49.129Z,980.16
2019-03-12T03:45:49.119Z,980.20
2019-03-12T03:46:49.171Z,980.14
2019-03-12T03:47:49.113Z,980.15
2019-03-12T03:48:49.104Z,980.13
2019-03-12T03:49:49.095Z,980.10
2019-03-12T03:50:49.094Z,980.12
2019-03-12T03:51:49.149Z,980.10
2019-03-12T03:52:49.084Z,980.12
2019-03-12T03:53:49.071Z,980.12
2019-03-12T03:54:49.065Z,980.08
2019-03-12T03:55:49.055Z,980.05
2019-03-12T03:56:49.087Z,980.07
2019-03-12T03:57:49.079Z,980.06
2019-03-12T03:58:49.039Z,980.05
2019-03-12T03:59:49.039Z,980.00
2019-03-12T04:00:49.028Z,980.00
2019-03-12T04:01:49.059Z,979.96
2019-03-12T04:02:49.097Z,979.99
2019-03-12T04:03:49.005Z,979.96
2019-03-12T04:04:49.003Z,979.98
2019-03-12T04:05:48.999Z,980.00
2019-03-12T04:06:49.023Z,980.00
2019-03-12T04:07:48.995Z,979.99
2019-03-12T04:08:48.988Z,980.01
2019-03-12T04:09:48.981Z,980.06
2019-03-12T04:10:48.978Z,980.06
2019-03-12T04:11:48.994Z,980.07
2019-03-12T04:12:48.984Z,980.08
2019-03-12T04:13:49.006Z,980.10
2019-03-12T04:14:48.981Z,980.13
2019-03-12T04:15:48.946Z,980.15
2019-03-12T04:16:48.939Z,980.15
2019-03-12T04:17:48.954Z,980.14
2019-03-12T04:18:48.918Z,980.17
2019-03-12T04:19:48.907Z,980.19
2019-03-12T04:20:48.907Z,980.23
2019-03-12T04:21:49.002Z,980.24
2019-03-12T04:22:48.998Z,980.25
2019-03-12T04:23:48.880Z,980.26
2019-03-12T04:24:48.885Z,980.31
2019-03-12T04:25:48.879Z,980.29
2019-03-12T04:26:48.899Z,980.26
2019-03-12T04:27:48.864Z,980.30
2019-03-12T04:28:48.846Z,980.27
2019-03-12T04:29:48.841Z,980.28
2019-03-12T04:30:48.846Z,980.30
2019-03-12T04:31:48.864Z,980.34
2019-03-12T04:32:48.824Z,980.32
2019-03-12T04:33:48.820Z,980.34
2019-03-12T04:34:48.815Z,980.32
2019-03-12T04:35:48.803Z,980.34
2019-03-12T04:36:48.832Z,980.35
2019-03-12T04:37:48.793Z,980.34
2019-03-12T04:38:48.783Z,980.36
2019-03-12T04:39:48.785Z,980.32
2019-03-12T04:40:48.772Z,980.27
2019-03-12T04:41:48.803Z,980.30
2019-03-12T04:42:48.795Z,980.29
2019-03-12T04:43:48.757Z,980.28
2019-03-12T04:44:48.747Z,980.34
2019-03-12T04:45:48.738Z,980.33
2019-03-12T04:46:48.738Z,980.35
2019-03-12T04:47:48.771Z,980.34
2019-03-12T04:48:48.726Z,980.33
2019-03-12T04:49:48.723Z,980.30
2019-03-12T04:50:48.711Z,980.30
2019-03-12T04:51:48.738Z,980.25
2019-03-12T04:52:48.693Z,980.30
2019-03-12T04:53:48.692Z,980.27
2019-03-12T04:54:48.691Z,980.27
2019-03-12T04:55:48.683Z,980.25
2019-03-12T04:56:48.706Z,980.26
2019-03-12T04:57:48.743Z,980.29
2019-03-12T04:58:48.660Z,980.24
2019-03-12T04:59:48.660Z,980.27
2019-03-12T05:00:48.682Z,980.26
2019-03-12T05:01:48.713Z,980.26
2019-03-12T05:02:48.634Z,980.25
2019-03-12T05:03:48.630Z,980.28
2019-03-12T05:04:48.629Z,980.25
2019-03-12T05:05:48.639Z,980.26
2019-03-12T05:06:48.695Z,980.26
2019-03-12T05:07:48.605Z,980.29
2019-03-12T05:08:48.592Z,980.28
2019-03-12T05:09:48.591Z,980.28
2019-03-12T05:10:48.608Z,980.27
2019-03-12T05:11:48.697Z,980.26
2019-03-12T05:12:48.570Z,980.28
2019-03-12T05:13:48.567Z,980.30
2019-03-12T05:14:48.560Z,980.28
2019-03-12T05:15:48.574Z,980.28
2019-03-12T05:16:48.590Z,980.26
2019-03-12T05:17:48.541Z,980.33
2019-03-12T05:18:48.535Z,980.35
2019-03-12T05:19:48.533Z,980.34
2019-03-12T05:20:48.524Z,980.36
2019-03-12T05:21:48.553Z,980.35
2019-03-12T05:22:48.543Z,980.37
2019-03-12T05:23:48.505Z,980.39
2019-03-12T05:24:48.496Z,980.41
2019-03-12T05:25:48.583Z,980.44
2019-03-12T05:26:48.489Z,980.43
2019-03-12T05:27:48.513Z,980.41
2019-03-12T05:28:48.468Z,980.45
2019-03-12T05:29:48.468Z,980.47
2019-03-12T05:30:48.469Z,980.45
2019-03-12T05:31:48.461Z,980.46
2019-03-12T05:32:48.485Z,980.43
2019-03-12T05:33:48.452Z,980.46
2019-03-12T05:34:48.436Z,980.43
2019-03-12T05:35:48.432Z,980.42
2019-03-12T05:36:48.424Z,980.43
2019-03-12T05:37:48.461Z,980.38
2019-03-12T05:38:48.417Z,980.35
2019-03-12T05:39:48.441Z,980.37
2019-03-12T05:40:48.400Z,980.34
2019-03-12T05:41:48.398Z,980.34
2019-03-12T05:42:48.448Z,980.36
2019-03-12T05:43:48.381Z,980.33
2019-03-12T05:44:48.379Z,980.32
2019-03-12T05:45:48.373Z,980.34
2019-03-12T05:46:48.374Z,980.32
2019-03-12T05:47:48.397Z,980.35
2019-03-12T05:48:48.356Z,980.32
2019-03-12T05:49:48.350Z,980.29
2019-03-12T05:50:48.343Z,980.35
2019-03-12T05:51:48.342Z,980.33
2019-03-12T05:52:49.339Z,980.42
2019-03-12T05:53:48.323Z,980.45
2019-03-12T05:54:48.321Z,980.39
2019-03-12T05:55:48.310Z,980.41
2019-03-12T05:56:48.344Z,980.43
2019-03-12T05:57:48.307Z,980.47
2019-03-12T05:58:48.301Z,980.46
2019-03-12T05:59:48.296Z,980.44
2019-03-12T06:00:48.286Z,980.42
2019-03-12T06:01:48.313Z,980.40
2019-03-12T06:02:48.357Z,980.46
2019-03-12T06:03:48.270Z,980.50
2019-03-12T06:04:48.379Z,980.50
2019-03-12T06:05:48.256Z,980.49
2019-03-12T06:06:48.288Z,980.49
2019-03-12T06:07:48.245Z,980.47
2019-03-12T06:08:48.241Z,980.45
2019-03-12T06:09:48.235Z,980.42
2019-03-12T06:10:48.225Z,980.40
2019-03-12T06:11:48.259Z,980.41
2019-03-12T06:12:48.216Z,980.45
2019-03-12T06:13:48.207Z,980.41
2019-03-12T06:14:48.198Z,980.42
2019-03-12T06:15:48.195Z,980.44
2019-03-12T06:16:48.228Z,980.37
2019-03-12T06:17:48.189Z,980.43
2019-03-12T06:18:48.184Z,980.40
2019-03-12T06:19:48.174Z,980.44
2019-03-12T06:20:48.172Z,980.49
2019-03-12T06:21:48.205Z,980.46
2019-03-12T06:22:48.160Z,980.46
2019-03-12T06:23:48.181Z,980.48
2019-03-12T06:24:48.146Z,980.47
2019-03-12T06:25:48.140Z,980.46
2019-03-12T06:26:48.169Z,980.52
2019-03-12T06:27:48.139Z,980.59
2019-03-12T06:28:48.123Z,980.68
2019-03-12T06:29:48.232Z,980.66
2019-03-12T06:30:48.115Z,980.67
2019-03-12T06:31:48.142Z,980.65
2019-03-12T06:32:48.101Z,980.58
2019-03-12T06:33:48.100Z,980.63
2019-03-12T06:34:48.093Z,980.57
2019-03-12T06:35:48.089Z,980.53
2019-03-12T06:36:48.125Z,980.53
2019-03-12T06:37:48.078Z,980.50
2019-03-12T06:38:48.074Z,980.49
2019-03-12T06:39:48.078Z,980.47
2019-03-12T06:40:48.058Z,980.46
2019-03-12T06:41:48.102Z,980.48
2019-03-12T06:42:48.058Z,980.53
2019-03-12T06:43:48.049Z,980.53
2019-03-12T06:44:48.047Z,980.49
2019-03-12T06:45:48.040Z,980.50
2019-03-12T06:46:48.071Z,980.51
2019-03-12T06:47:48.028Z,980.48
2019-03-12T06:48:48.024Z,980.47
2019-03-12T06:49:48.017Z,980.50
2019-03-12T06:50:48.009Z,980.45
2019-03-12T06:51:48.043Z,980.47
2019-03-12T06:52:48.002Z,980.49
2019-03-12T06:53:47.996Z,980.49
2019-03-12T06:54:47.992Z,980.51
2019-03-12T06:55:47.987Z,980.47
2019-03-12T06:56:48.019Z,980.49
2019-03-12T06:57:47.979Z,980.45
2019-03-12T06:58:47.980Z,980.48
2019-03-12T06:59:47.966Z,980.52
2019-03-12T07:00:47.967Z,980.60
2019-03-12T07:01:47.997Z,980.59
2019-03-12T07:02:48.031Z,980.62
2019-03-12T07:03:47.952Z,980.58
2019-03-12T07:04:47.960Z,980.58
2019-03-12T07:05:47.945Z,980.58
2019-03-12T07:06:47.979Z,980.56
2019-03-12T07:07:47.935Z,980.57
2019-03-12T07:08:47.923Z,980.52
2019-03-12T07:09:47.924Z,980.51
2019-03-12T07:10:47.926Z,980.48
2019-03-12T07:11:47.974Z,980.46
2019-03-12T07:12:47.914Z,980.46
2019-03-12T07:13:47.904Z,980.47
2019-03-12T07:14:47.900Z,980.39
2019-03-12T07:15:47.898Z,980.40
2019-03-12T07:16:47.936Z,980.46
2019-03-12T07:17:47.894Z,980.49
2019-03-12T07:18:47.887Z,980.49
2019-03-12T07:19:47.881Z,980.73
2019-03-12T07:20:47.878Z,980.84
2019-03-12T07:21:47.910Z,980.96
2019-03-12T07:22:47.870Z,981.04
2019-03-12T07:23:47.866Z,981.09
2019-03-12T07:24:47.862Z,981.08
2019-03-12T07:25:50.729Z,981.14
2019-03-12T07:26:47.899Z,981.16
2019-03-12T07:27:47.854Z,981.20
2019-03-12T07:28:50.703Z,981.22
2019-03-12T07:29:47.849Z,981.27
2019-03-12T07:30:47.884Z,981.08
2019-03-12T07:31:47.846Z,981.21
2019-03-12T07:32:47.875Z,981.24
2019-03-12T07:33:47.838Z,981.21
2019-03-12T07:34:47.838Z,981.19
2019-03-12T07:35:47.840Z,981.27
2019-03-12T07:36:47.873Z,981.31
2019-03-12T07:37:47.841Z,981.31
2019-03-12T07:38:47.837Z,981.34
2019-03-12T07:39:47.832Z,981.32
2019-03-12T07:40:47.836Z,981.38
2019-03-12T07:41:47.868Z,981.33
2019-03-12T07:42:47.833Z,981.19
2019-03-12T07:43:47.830Z,981.26
2019-03-12T07:44:47.836Z,981.25
2019-03-12T07:45:47.829Z,981.18
2019-03-12T07:46:47.879Z,981.14
2019-03-12T07:47:47.867Z,981.15
2019-03-12T07:48:47.833Z,981.17
2019-03-12T07:49:47.836Z,981.14
2019-03-12T07:50:47.836Z,981.17
2019-03-12T07:51:47.830Z,981.18
2019-03-12T07:52:47.875Z,981.17
2019-03-12T07:53:58.824Z,981.21
2019-03-12T07:54:47.836Z,981.18
2019-03-12T07:55:47.837Z,981.20
2019-03-12T07:56:47.835Z,981.28
2019-03-12T07:57:47.875Z,981.27
2019-03-12T07:58:47.836Z,981.21
2019-03-12T07:59:47.835Z,981.33
2019-03-12T08:00:47.836Z,981.21
2019-03-12T08:01:47.878Z,981.21
2019-03-12T08:02:47.839Z,981.22
2019-03-12T08:03:47.839Z,981.17
2019-03-12T08:04:47.840Z,981.21
2019-03-12T08:05:47.843Z,981.10
2019-03-12T08:06:47.883Z,980.95
2019-03-12T08:07:47.879Z,980.98
2019-03-12T08:08:47.843Z,981.20
2019-03-12T08:09:47.843Z,980.99
2019-03-12T08:10:47.848Z,980.86
2019-03-12T08:11:47.848Z,980.80
2019-03-12T08:12:47.887Z,981.22
2019-03-12T08:13:47.857Z,981.26
2019-03-12T08:14:47.849Z,981.26
2019-03-12T08:15:50.360Z,981.27
2019-03-12T08:16:47.851Z,981.34
2019-03-12T08:17:47.891Z,981.27
2019-03-12T08:18:47.855Z,981.35
2019-03-12T08:19:47.857Z,981.18
2019-03-12T08:20:48.491Z,981.16
2019-03-12T08:21:49.780Z,981.08
2019-03-12T08:22:47.896Z,981.07
2019-03-12T08:23:47.859Z,981.26
2019-03-12T08:24:47.856Z,981.33
2019-03-12T08:25:47.863Z,981.23
2019-03-12T08:26:47.899Z,981.22
2019-03-12T08:27:47.904Z,981.19
2019-03-12T08:28:47.859Z,981.20
2019-03-12T08:29:47.864Z,981.22
2019-03-12T08:30:47.866Z,981.21
2019-03-12T08:31:47.866Z,981.11
2019-03-12T08:32:47.902Z,981.16
2019-03-12T08:33:50.833Z,981.15
2019-03-12T08:34:47.869Z,981.07
2019-03-12T08:35:47.878Z,981.11
2019-03-12T08:36:47.874Z,981.08
2019-03-12T08:37:47.918Z,981.09
2019-03-12T08:38:47.878Z,981.12
2019-03-12T08:39:47.886Z,981.11
2019-03-12T08:40:52.536Z,980.79
2019-03-12T08:41:47.922Z,980.77
2019-03-12T08:42:54.521Z,981.03
2019-03-12T08:43:47.917Z,980.79
2019-03-12T08:44:47.891Z,980.96
2019-03-12T08:45:48.871Z,981.01
2019-03-12T08:46:47.933Z,981.06
2019-03-12T08:47:47.900Z,981.10
2019-03-12T08:48:47.898Z,980.94
2019-03-12T08:49:47.907Z,981.04
2019-03-12T08:50:47.919Z,981.00
2019-03-12T08:51:47.954Z,980.96
2019-03-12T08:52:47.907Z,980.90
2019-03-12T08:53:47.914Z,980.93
2019-03-12T08:54:54.296Z,980.86
2019-03-12T08:55:47.911Z,980.83
2019-03-12T08:56:47.952Z,980.81
2019-03-12T08:57:47.918Z,980.75
2019-03-12T08:58:47.925Z,980.74
2019-03-12T08:59:47.926Z,980.73
2019-03-12T09:00:47.929Z,980.68
2019-03-12T09:01:47.972Z,980.72
2019-03-12T09:02:47.945Z,980.70
2019-03-12T09:03:47.940Z,980.68
2019-03-12T09:04:47.944Z,980.75
2019-03-12T09:05:47.945Z,980.73
2019-03-12T09:06:47.984Z,980.69
2019-03-12T09:07:47.953Z,980.74
2019-03-12T09:08:47.960Z,980.70
2019-03-12T09:09:47.961Z,980.58
2019-03-12T09:10:47.969Z,980.63
2019-03-12T09:11:48.005Z,980.70
2019-03-12T09:12:47.970Z,980.35
2019-03-12T09:13:47.983Z,980.57
2019-03-12T09:14:47.980Z,980.55
2019-03-12T09:15:47.984Z,980.58
2019-03-12T09:16:47.993Z,980.53
2019-03-12T09:17:48.024Z,980.53
2019-03-12T09:18:47.994Z,980.53
2019-03-12T09:19:48.002Z,980.52
2019-03-12T09:20:47.999Z,980.50
2019-03-12T09:21:48.019Z,980.44
2019-03-12T09:22:48.050Z,980.49
2019-03-12T09:23:48.015Z,980.52
2019-03-12T09:24:48.021Z,980.44
2019-03-12T09:25:48.098Z,980.44
2019-03-12T09:26:48.026Z,980.51
2019-03-12T09:27:48.070Z,980.51
2019-03-12T09:28:48.035Z,980.46
2019-03-12T09:29:48.043Z,980.51
2019-03-12T09:30:48.048Z,980.27
2019-03-12T09:31:48.055Z,980.17
2019-03-12T09:32:48.093Z,980.12
2019-03-12T09:33:48.059Z,980.11
2019-03-12T09:34:48.071Z,980.37
2019-03-12T09:35:48.064Z,980.38
2019-03-12T09:36:48.077Z,980.19
2019-03-12T09:37:48.112Z,980.43
2019-03-12T09:38:48.077Z,980.11
2019-03-12T09:39:48.086Z,980.07
2019-03-12T09:40:48.087Z,980.27
2019-03-12T09:41:48.094Z,980.40
2019-03-12T09:42:48.126Z,980.41
2019-03-12T09:43:48.380Z,980.15
2019-03-12T09:44:48.100Z,980.08
2019-03-12T09:45:48.102Z,980.07
2019-03-12T09:46:48.103Z,980.03
2019-03-12T09:47:48.155Z,980.06
2019-03-12T09:48:48.111Z,980.05
2019-03-12T09:49:48.116Z,980.23
2019-03-12T09:50:48.114Z,980.07
2019-03-12T09:51:48.115Z,980.39
2019-03-12T09:52:48.158Z,980.37
2019-03-12T09:53:48.122Z,980.39
2019-03-12T09:54:48.131Z,980.04
2019-03-12T09:55:48.131Z,980.35
2019-03-12T09:56:48.134Z,980.25
2019-03-12T09:57:48.171Z,979.95
2019-03-12T09:58:48.135Z,980.27
2019-03-12T09:59:48.140Z,980.28
2019-03-12T10:00:48.140Z,980.23
2019-03-12T10:01:48.153Z,980.22
2019-03-12T10:02:48.186Z,980.16
2019-03-12T10:03:48.156Z,980.22
2019-03-12T10:04:48.161Z,980.20
2019-03-12T10:05:48.157Z,979.79
2019-03-12T10:06:48.169Z,980.11
2019-03-12T10:07:48.205Z,980.06
2019-03-12T10:08:48.175Z,980.15
2019-03-12T10:09:48.210Z,980.14
2019-03-12T10:10:48.186Z,980.09
2019-03-12T10:11:48.272Z,979.81
2019-03-12T10:12:48.230Z,979.95
2019-03-12T10:13:48.207Z,980.13
2019-03-12T10:14:48.207Z,980.04
2019-03-12T10:15:48.216Z,979.79
2019-03-12T10:16:48.250Z,979.58
2019-03-12T10:17:48.221Z,979.62
2019-03-12T10:18:48.229Z,979.60
2019-03-12T10:19:48.238Z,979.62
2019-03-12T10:20:48.734Z,979.59
2019-03-12T10:21:48.368Z,979.99
2019-03-12T10:22:48.297Z,979.60
2019-03-12T10:23:48.300Z,979.77
2019-03-12T10:24:48.262Z,979.61
2019-03-12T10:25:48.358Z,979.57
2019-03-12T10:26:48.267Z,979.52
2019-03-12T10:27:48.295Z,979.94
2019-03-12T10:28:48.258Z,979.93
2019-03-12T10:29:48.357Z,979.80
2019-03-12T10:30:48.308Z,979.48
2019-03-12T10:31:48.270Z,979.43
2019-03-12T10:32:48.309Z,979.69
2019-03-12T10:33:48.277Z,979.72
2019-03-12T10:34:48.298Z,979.73
2019-03-12T10:35:48.435Z,979.63
2019-03-12T10:36:48.599Z,979.77
2019-03-12T10:37:48.287Z,979.74
2019-03-12T10:38:48.326Z,979.76
2019-03-12T10:39:48.293Z,979.63
2019-03-12T10:40:48.328Z,979.72
2019-03-12T10:41:48.301Z,979.73
2019-03-12T10:42:48.305Z,979.68
2019-03-12T10:43:48.342Z,979.71
2019-03-12T10:44:48.416Z,979.73
2019-03-12T10:45:48.321Z,979.71
2019-03-12T10:46:48.355Z,979.75
2019-03-12T10:47:48.335Z,979.66
2019-03-12T10:48:48.374Z,979.37
2019-03-12T10:49:48.346Z,979.65
2019-03-12T10:50:48.354Z,979.55
2019-03-12T10:51:48.358Z,979.58
2019-03-12T10:52:48.421Z,979.20
2019-03-12T10:53:48.412Z,979.21
2019-03-12T10:54:48.379Z,979.48
2019-03-12T10:55:48.385Z,979.19
2019-03-12T10:56:48.393Z,979.29
2019-03-12T10:57:48.404Z,979.45
2019-03-12T10:58:48.441Z,979.20
2019-03-12T10:59:48.418Z,979.40
2019-03-12T11:00:48.417Z,979.25
2019-03-12T11:01:48.422Z,979.39
2019-03-12T11:02:48.427Z,979.42
2019-03-12T11:03:48.490Z,978.96
2019-03-12T11:04:48.448Z,979.38
2019-03-12T11:05:48.455Z,979.40
2019-03-12T11:06:48.455Z,979.11
2019-03-12T11:07:48.461Z,979.09
2019-03-12T11:08:48.498Z,978.85
2019-03-12T11:09:48.475Z,979.21
2019-03-12T11:10:48.483Z,979.27
2019-03-12T11:11:48.487Z,979.21
2019-03-12T11:12:48.500Z,979.15
2019-03-12T11:13:48.571Z,978.95
2019-03-12T11:14:48.508Z,978.82
2019-03-12T11:15:48.513Z,979.11
2019-03-12T11:16:48.518Z,979.09
2019-03-12T11:17:50.232Z,979.09
2019-03-12T11:18:48.565Z,979.05
2019-03-12T11:19:48.540Z,979.08
2019-03-12T11:20:48.544Z,979.00
2019-03-12T11:21:48.551Z,979.07
2019-03-12T11:22:48.557Z,978.81
2019-03-12T11:23:48.673Z,978.87
2019-03-12T11:24:48.571Z,978.61
2019-03-12T11:25:48.579Z,978.89
2019-03-12T11:26:48.586Z,978.94
2019-03-12T11:27:48.589Z,978.86
2019-03-12T11:28:48.629Z,978.67
2019-03-12T11:29:48.601Z,978.85
2019-03-12T11:30:48.608Z,978.84
2019-03-12T11:31:48.647Z,978.53
2019-03-12T11:32:48.622Z,978.50
2019-03-12T11:33:48.621Z,978.48
2019-03-12T11:34:48.674Z,978.73
2019-03-12T11:35:48.628Z,978.69
2019-03-12T11:36:48.652Z,978.46
2019-03-12T11:37:48.972Z,978.72
2019-03-12T11:38:48.655Z,978.69
2019-03-12T11:39:48.725Z,978.71
2019-03-12T11:40:48.700Z,978.72
2019-03-12T11:41:48.661Z,978.48
2019-03-12T11:42:48.678Z,978.44
2019-03-12T11:43:48.925Z,978.73
2019-03-12T11:44:48.716Z,978.63
2019-03-12T11:45:48.696Z,978.60
2019-03-12T11:46:48.694Z,978.43
2019-03-12T11:47:48.797Z,978.10
2019-03-12T11:48:49.118Z,978.22
2019-03-12T11:49:48.754Z,978.06
2019-03-12T11:50:48.725Z,977.93
2019-03-12T11:51:48.742Z,977.97
2019-03-12T11:52:54.790Z,978.36
2019-03-12T11:53:48.770Z,978.28
2019-03-12T11:54:49.168Z,978.26
2019-03-12T11:55:48.753Z,978.28
2019-03-12T11:56:48.785Z,978.20
2019-03-12T11:57:48.838Z,978.21
2019-03-12T11:58:48.812Z,978.17
2019-03-12T11:59:48.777Z,978.22
2019-03-12T12:00:48.791Z,978.10
2019-03-12T12:01:48.801Z,978.04
2019-03-12T12:02:59.390Z,978.00
2019-03-12T12:03:48.809Z,978.04
2019-03-12T12:04:48.853Z,977.77
2019-03-12T12:05:48.833Z,977.68
2019-03-12T12:06:48.855Z,977.82
2019-03-12T12:07:48.846Z,977.94
2019-03-12T12:08:48.857Z,977.96
2019-03-12T12:09:48.893Z,977.73
2019-03-12T12:10:48.866Z,977.47
2019-03-12T12:11:48.873Z,977.79
2019-03-12T12:12:48.882Z,977.73
2019-03-12T12:13:48.926Z,977.75
2019-03-12T12:14:48.893Z,977.81
2019-03-12T12:15:48.898Z,977.81
2019-03-12T12:16:48.923Z,977.42
2019-03-12T12:17:49.542Z,977.30
2019-03-12T12:18:48.957Z,977.75
2019-03-12T12:19:48.930Z,977.76
2019-03-12T12:20:48.937Z,977.72
2019-03-12T12:21:48.950Z,977.52
2019-03-12T12:22:48.996Z,977.68
2019-03-12T12:23:48.958Z,977.60
2019-03-12T12:24:48.965Z,977.63
2019-03-12T12:25:49.447Z,977.15
2019-03-12T12:26:48.981Z,977.24
2019-03-12T12:27:49.138Z,977.47
2019-03-12T12:28:48.993Z,977.20